sensor_id;sensor_type;location;lat;lon;timestamp;P1;durP1;ratioP1;P2;durP2;ratioP2
46493;SDS011;53214;49.314;6.280;2024-01-27T00:02:08;25.60;;;13.05;;
46493;SDS011;53214;49.314;6.280;2024-01-27T00:04:36;33.58;;;14.00;;
46493;SDS011;53214;49.314;6.280;2024-01-27T00:07:03;28.13;;;14.90;;
46493;SDS011;53214;49.314;6.280;2024-01-27T00:09:31;39.67;;;15.88;;
46493;SDS011;53214;49.314;6.280;2024-01-27T00:11:58;29.60;;;13.88;;
46493;SDS011;53214;49.314;6.280;2024-01-27T00:14:25;29.25;;;15.68;;
46493;SDS011;53214;49.314;6.280;2024-01-27T00:16:51;33.17;;;14.75;;
46493;SDS011;53214;49.314;6.280;2024-01-27T00:19:18;26.02;;;13.93;;
46493;SDS011;53214;49.314;6.280;2024-01-27T00:21:45;40.05;;;13.32;;
46493;SDS011;53214;49.314;6.280;2024-01-27T00:24:13;28.20;;;13.05;;
46493;SDS011;53214;49.314;6.280;2024-01-27T00:26:40;28.17;;;13.55;;
46493;SDS011;53214;49.314;6.280;2024-01-27T00:29:07;27.75;;;13.27;;
46493;SDS011;53214;49.314;6.280;2024-01-27T00:31:34;31.70;;;14.75;;
46493;SDS011;53214;49.314;6.280;2024-01-27T00:34:01;35.50;;;14.77;;
46493;SDS011;53214;49.314;6.280;2024-01-27T00:36:28;46.40;;;19.05;;
46493;SDS011;53214;49.314;6.280;2024-01-27T00:38:55;39.65;;;18.30;;
46493;SDS011;53214;49.314;6.280;2024-01-27T00:41:22;43.50;;;18.58;;
46493;SDS011;53214;49.314;6.280;2024-01-27T00:43:49;45.28;;;18.98;;
46493;SDS011;53214;49.314;6.280;2024-01-27T00:46:16;40.85;;;18.42;;
46493;SDS011;53214;49.314;6.280;2024-01-27T00:48:42;36.00;;;15.82;;
46493;SDS011;53214;49.314;6.280;2024-01-27T00:51:09;40.03;;;18.20;;
46493;SDS011;53214;49.314;6.280;2024-01-27T00:53:36;41.70;;;17.30;;
46493;SDS011;53214;49.314;6.280;2024-01-27T00:56:03;30.75;;;15.48;;
46493;SDS011;53214;49.314;6.280;2024-01-27T00:58:30;34.03;;;14.70;;
46493;SDS011;53214;49.314;6.280;2024-01-27T01:00:57;30.65;;;13.48;;
46493;SDS011;53214;49.314;6.280;2024-01-27T01:03:24;34.05;;;12.68;;
46493;SDS011;53214;49.314;6.280;2024-01-27T01:05:51;24.38;;;12.00;;
46493;SDS011;53214;49.314;6.280;2024-01-27T01:08:18;34.42;;;14.63;;
46493;SDS011;53214;49.314;6.280;2024-01-27T01:10:45;26.35;;;10.98;;
46493;SDS011;53214;49.314;6.280;2024-01-27T01:13:12;25.35;;;11.93;;
46493;SDS011;53214;49.314;6.280;2024-01-27T01:15:39;28.83;;;12.18;;
46493;SDS011;53214;49.314;6.280;2024-01-27T01:18:05;31.80;;;13.20;;
46493;SDS011;53214;49.314;6.280;2024-01-27T01:20:32;26.52;;;11.70;;
46493;SDS011;53214;49.314;6.280;2024-01-27T01:22:59;25.67;;;12.18;;
46493;SDS011;53214;49.314;6.280;2024-01-27T01:25:26;23.70;;;11.07;;
46493;SDS011;53214;49.314;6.280;2024-01-27T01:27:53;28.05;;;11.85;;
46493;SDS011;53214;49.314;6.280;2024-01-27T01:30:20;27.38;;;12.35;;
46493;SDS011;53214;49.314;6.280;2024-01-27T01:32:46;26.20;;;12.38;;
46493;SDS011;53214;49.314;6.280;2024-01-27T01:35:14;23.75;;;11.98;;
46493;SDS011;53214;49.314;6.280;2024-01-27T01:37:41;31.60;;;13.38;;
46493;SDS011;53214;49.314;6.280;2024-01-27T01:40:07;25.83;;;11.38;;
46493;SDS011;53214;49.314;6.280;2024-01-27T01:42:35;28.17;;;12.85;;
46493;SDS011;53214;49.314;6.280;2024-01-27T01:45:01;31.20;;;12.43;;
46493;SDS011;53214;49.314;6.280;2024-01-27T01:47:28;25.13;;;12.48;;
46493;SDS011;53214;49.314;6.280;2024-01-27T01:49:55;27.88;;;12.57;;
46493;SDS011;53214;49.314;6.280;2024-01-27T01:52:23;24.42;;;11.98;;
46493;SDS011;53214;49.314;6.280;2024-01-27T01:54:50;26.23;;;12.60;;
46493;SDS011;53214;49.314;6.280;2024-01-27T01:57:17;26.08;;;12.20;;
46493;SDS011;53214;49.314;6.280;2024-01-27T01:59:44;24.13;;;11.98;;
46493;SDS011;53214;49.314;6.280;2024-01-27T02:02:12;25.05;;;11.48;;
46493;SDS011;53214;49.314;6.280;2024-01-27T02:04:42;26.60;;;12.10;;
46493;SDS011;53214;49.314;6.280;2024-01-27T02:07:09;24.27;;;12.50;;
46493;SDS011;53214;49.314;6.280;2024-01-27T02:09:36;21.10;;;11.05;;
46493;SDS011;53214;49.314;6.280;2024-01-27T02:12:03;23.05;;;13.07;;
46493;SDS011;53214;49.314;6.280;2024-01-27T02:14:31;32.95;;;13.63;;
46493;SDS011;53214;49.314;6.280;2024-01-27T02:16:58;25.75;;;14.77;;
46493;SDS011;53214;49.314;6.280;2024-01-27T02:19:25;29.42;;;15.88;;
46493;SDS011;53214;49.314;6.280;2024-01-27T02:21:52;21.10;;;12.60;;
46493;SDS011;53214;49.314;6.280;2024-01-27T02:24:18;26.73;;;15.23;;
46493;SDS011;53214;49.314;6.280;2024-01-27T02:26:45;27.88;;;13.43;;
46493;SDS011;53214;49.314;6.280;2024-01-27T02:29:12;28.85;;;14.50;;
46493;SDS011;53214;49.314;6.280;2024-01-27T02:31:39;29.25;;;14.13;;
46493;SDS011;53214;49.314;6.280;2024-01-27T02:34:06;23.83;;;13.20;;
46493;SDS011;53214;49.314;6.280;2024-01-27T02:36:33;25.80;;;13.43;;
46493;SDS011;53214;49.314;6.280;2024-01-27T02:39:00;27.98;;;13.73;;
46493;SDS011;53214;49.314;6.280;2024-01-27T02:41:27;20.83;;;11.75;;
46493;SDS011;53214;49.314;6.280;2024-01-27T02:43:54;22.55;;;12.20;;
46493;SDS011;53214;49.314;6.280;2024-01-27T02:46:20;24.20;;;11.80;;
46493;SDS011;53214;49.314;6.280;2024-01-27T02:48:47;23.13;;;11.32;;
46493;SDS011;53214;49.314;6.280;2024-01-27T02:51:18;26.10;;;12.18;;
46493;SDS011;53214;49.314;6.280;2024-01-27T02:53:46;28.33;;;12.45;;
46493;SDS011;53214;49.314;6.280;2024-01-27T02:56:15;27.88;;;12.88;;
46493;SDS011;53214;49.314;6.280;2024-01-27T02:58:42;23.00;;;11.73;;
46493;SDS011;53214;49.314;6.280;2024-01-27T03:01:09;27.20;;;11.15;;
46493;SDS011;53214;49.314;6.280;2024-01-27T03:03:36;25.70;;;11.68;;
46493;SDS011;53214;49.314;6.280;2024-01-27T03:06:03;25.90;;;11.32;;
46493;SDS011;53214;49.314;6.280;2024-01-27T03:08:31;21.08;;;11.48;;
46493;SDS011;53214;49.314;6.280;2024-01-27T03:10:57;20.80;;;11.15;;
46493;SDS011;53214;49.314;6.280;2024-01-27T03:13:24;24.50;;;10.75;;
46493;SDS011;53214;49.314;6.280;2024-01-27T03:15:51;21.50;;;10.38;;
46493;SDS011;53214;49.314;6.280;2024-01-27T03:18:18;20.83;;;9.43;;
46493;SDS011;53214;49.314;6.280;2024-01-27T03:20:45;20.90;;;8.70;;
46493;SDS011;53214;49.314;6.280;2024-01-27T03:23:12;24.67;;;8.65;;
46493;SDS011;53214;49.314;6.280;2024-01-27T03:25:39;25.60;;;10.55;;
46493;SDS011;53214;49.314;6.280;2024-01-27T03:28:06;23.80;;;9.38;;
46493;SDS011;53214;49.314;6.280;2024-01-27T03:30:33;24.13;;;10.05;;
46493;SDS011;53214;49.314;6.280;2024-01-27T03:33:00;22.67;;;9.57;;
46493;SDS011;53214;49.314;6.280;2024-01-27T03:35:26;21.33;;;9.48;;
46493;SDS011;53214;49.314;6.280;2024-01-27T03:37:53;19.65;;;9.60;;
46493;SDS011;53214;49.314;6.280;2024-01-27T03:40:20;20.88;;;9.98;;
46493;SDS011;53214;49.314;6.280;2024-01-27T03:42:47;20.52;;;9.48;;
46493;SDS011;53214;49.314;6.280;2024-01-27T03:45:13;21.67;;;10.15;;
46493;SDS011;53214;49.314;6.280;2024-01-27T03:47:40;24.05;;;11.55;;
46493;SDS011;53214;49.314;6.280;2024-01-27T03:50:07;22.40;;;9.10;;
46493;SDS011;53214;49.314;6.280;2024-01-27T03:52:34;18.30;;;10.13;;
46493;SDS011;53214;49.314;6.280;2024-01-27T03:55:02;21.17;;;10.50;;
46493;SDS011;53214;49.314;6.280;2024-01-27T03:57:28;24.35;;;11.70;;
46493;SDS011;53214;49.314;6.280;2024-01-27T03:59:55;22.75;;;10.82;;
46493;SDS011;53214;49.314;6.280;2024-01-27T04:02:22;20.23;;;11.02;;
46493;SDS011;53214;49.314;6.280;2024-01-27T04:04:49;18.90;;;10.88;;
46493;SDS011;53214;49.314;6.280;2024-01-27T04:07:16;23.02;;;11.38;;
46493;SDS011;53214;49.314;6.280;2024-01-27T04:09:42;25.08;;;11.07;;
46493;SDS011;53214;49.314;6.280;2024-01-27T04:12:09;19.58;;;11.73;;
46493;SDS011;53214;49.314;6.280;2024-01-27T04:14:36;20.75;;;11.40;;
46493;SDS011;53214;49.314;6.280;2024-01-27T04:17:03;20.10;;;10.57;;
46493;SDS011;53214;49.314;6.280;2024-01-27T04:19:30;23.67;;;10.05;;
46493;SDS011;53214;49.314;6.280;2024-01-27T04:21:57;18.92;;;9.98;;
46493;SDS011;53214;49.314;6.280;2024-01-27T04:24:24;22.83;;;10.10;;
46493;SDS011;53214;49.314;6.280;2024-01-27T04:26:50;19.50;;;9.73;;
46493;SDS011;53214;49.314;6.280;2024-01-27T04:29:17;16.30;;;9.73;;
46493;SDS011;53214;49.314;6.280;2024-01-27T04:31:44;22.88;;;9.95;;
46493;SDS011;53214;49.314;6.280;2024-01-27T04:34:11;21.38;;;9.18;;
46493;SDS011;53214;49.314;6.280;2024-01-27T04:36:38;17.60;;;9.00;;
46493;SDS011;53214;49.314;6.280;2024-01-27T04:39:05;19.50;;;9.55;;
46493;SDS011;53214;49.314;6.280;2024-01-27T04:41:32;19.88;;;9.52;;
46493;SDS011;53214;49.314;6.280;2024-01-27T04:43:59;22.55;;;7.88;;
46493;SDS011;53214;49.314;6.280;2024-01-27T04:46:26;24.05;;;7.22;;
46493;SDS011;53214;49.314;6.280;2024-01-27T04:48:52;12.95;;;6.43;;
46493;SDS011;53214;49.314;6.280;2024-01-27T04:51:19;20.38;;;7.00;;
46493;SDS011;53214;49.314;6.280;2024-01-27T04:53:46;17.52;;;6.50;;
46493;SDS011;53214;49.314;6.280;2024-01-27T04:56:13;14.77;;;6.60;;
46493;SDS011;53214;49.314;6.280;2024-01-27T04:58:40;15.05;;;6.43;;
46493;SDS011;53214;49.314;6.280;2024-01-27T05:01:09;17.42;;;6.75;;
46493;SDS011;53214;49.314;6.280;2024-01-27T05:03:36;19.88;;;7.32;;
46493;SDS011;53214;49.314;6.280;2024-01-27T05:06:03;16.58;;;6.78;;
46493;SDS011;53214;49.314;6.280;2024-01-27T05:08:33;22.10;;;7.20;;
46493;SDS011;53214;49.314;6.280;2024-01-27T05:11:01;19.70;;;6.18;;
46493;SDS011;53214;49.314;6.280;2024-01-27T05:13:28;20.27;;;6.32;;
46493;SDS011;53214;49.314;6.280;2024-01-27T05:15:54;19.40;;;5.88;;
46493;SDS011;53214;49.314;6.280;2024-01-27T05:18:22;15.63;;;5.90;;
46493;SDS011;53214;49.314;6.280;2024-01-27T05:20:48;18.02;;;6.05;;
46493;SDS011;53214;49.314;6.280;2024-01-27T05:23:15;16.52;;;6.15;;
46493;SDS011;53214;49.314;6.280;2024-01-27T05:25:43;19.88;;;5.57;;
46493;SDS011;53214;49.314;6.280;2024-01-27T05:28:10;17.10;;;6.03;;
46493;SDS011;53214;49.314;6.280;2024-01-27T05:30:37;19.27;;;6.03;;
46493;SDS011;53214;49.314;6.280;2024-01-27T05:33:04;14.32;;;5.95;;
46493;SDS011;53214;49.314;6.280;2024-01-27T05:35:31;15.70;;;6.15;;
46493;SDS011;53214;49.314;6.280;2024-01-27T05:37:57;15.43;;;6.03;;
46493;SDS011;53214;49.314;6.280;2024-01-27T05:40:24;17.25;;;5.72;;
46493;SDS011;53214;49.314;6.280;2024-01-27T05:42:51;16.30;;;5.80;;
46493;SDS011;53214;49.314;6.280;2024-01-27T05:45:17;19.75;;;5.82;;
46493;SDS011;53214;49.314;6.280;2024-01-27T05:47:44;16.15;;;6.90;;
46493;SDS011;53214;49.314;6.280;2024-01-27T05:50:11;17.95;;;7.35;;
46493;SDS011;53214;49.314;6.280;2024-01-27T05:52:38;17.00;;;6.07;;
46493;SDS011;53214;49.314;6.280;2024-01-27T05:55:05;21.23;;;6.53;;
46493;SDS011;53214;49.314;6.280;2024-01-27T05:57:33;21.20;;;6.72;;
46493;SDS011;53214;49.314;6.280;2024-01-27T06:00:00;17.08;;;5.60;;
46493;SDS011;53214;49.314;6.280;2024-01-27T06:02:27;16.20;;;5.75;;
46493;SDS011;53214;49.314;6.280;2024-01-27T06:04:54;20.80;;;5.63;;
46493;SDS011;53214;49.314;6.280;2024-01-27T06:07:20;17.63;;;5.72;;
46493;SDS011;53214;49.314;6.280;2024-01-27T06:09:47;12.85;;;5.45;;
46493;SDS011;53214;49.314;6.280;2024-01-27T06:12:14;15.93;;;4.70;;
46493;SDS011;53214;49.314;6.280;2024-01-27T06:14:41;15.43;;;4.70;;
46493;SDS011;53214;49.314;6.280;2024-01-27T06:17:08;17.92;;;4.93;;
46493;SDS011;53214;49.314;6.280;2024-01-27T06:19:35;12.77;;;4.70;;
46493;SDS011;53214;49.314;6.280;2024-01-27T06:22:03;13.50;;;4.78;;
46493;SDS011;53214;49.314;6.280;2024-01-27T06:24:32;17.02;;;5.07;;
46493;SDS011;53214;49.314;6.280;2024-01-27T06:26:59;15.10;;;4.00;;
46493;SDS011;53214;49.314;6.280;2024-01-27T06:29:25;16.05;;;4.78;;
46493;SDS011;53214;49.314;6.280;2024-01-27T06:31:53;17.05;;;5.50;;
46493;SDS011;53214;49.314;6.280;2024-01-27T06:34:20;17.65;;;4.57;;
46493;SDS011;53214;49.314;6.280;2024-01-27T06:36:47;17.60;;;4.63;;
46493;SDS011;53214;49.314;6.280;2024-01-27T06:39:14;15.32;;;3.80;;
46493;SDS011;53214;49.314;6.280;2024-01-27T06:41:40;15.27;;;4.70;;
46493;SDS011;53214;49.314;6.280;2024-01-27T06:44:07;14.43;;;4.28;;
46493;SDS011;53214;49.314;6.280;2024-01-27T06:46:34;16.02;;;4.05;;
46493;SDS011;53214;49.314;6.280;2024-01-27T06:49:01;17.25;;;4.35;;
46493;SDS011;53214;49.314;6.280;2024-01-27T06:51:28;14.00;;;4.00;;
46493;SDS011;53214;49.314;6.280;2024-01-27T06:53:55;16.00;;;3.90;;
46493;SDS011;53214;49.314;6.280;2024-01-27T06:56:22;14.85;;;4.13;;
46493;SDS011;53214;49.314;6.280;2024-01-27T06:58:48;12.55;;;3.58;;
46493;SDS011;53214;49.314;6.280;2024-01-27T07:01:15;12.68;;;3.92;;
46493;SDS011;53214;49.314;6.280;2024-01-27T07:03:42;17.38;;;4.10;;
46493;SDS011;53214;49.314;6.280;2024-01-27T07:06:11;14.90;;;3.88;;
46493;SDS011;53214;49.314;6.280;2024-01-27T07:08:38;14.93;;;4.60;;
46493;SDS011;53214;49.314;6.280;2024-01-27T07:11:05;16.50;;;4.00;;
46493;SDS011;53214;49.314;6.280;2024-01-27T07:13:31;15.13;;;3.60;;
46493;SDS011;53214;49.314;6.280;2024-01-27T07:15:58;12.98;;;3.85;;
46493;SDS011;53214;49.314;6.280;2024-01-27T07:18:25;16.50;;;4.38;;
46493;SDS011;53214;49.314;6.280;2024-01-27T07:20:53;16.92;;;4.05;;
46493;SDS011;53214;49.314;6.280;2024-01-27T07:23:21;13.07;;;4.47;;
46493;SDS011;53214;49.314;6.280;2024-01-27T07:25:48;19.58;;;4.72;;
46493;SDS011;53214;49.314;6.280;2024-01-27T07:28:14;13.48;;;3.58;;
46493;SDS011;53214;49.314;6.280;2024-01-27T07:30:42;14.30;;;4.38;;
46493;SDS011;53214;49.314;6.280;2024-01-27T07:33:09;17.98;;;3.92;;
46493;SDS011;53214;49.314;6.280;2024-01-27T07:35:36;13.05;;;3.67;;
46493;SDS011;53214;49.314;6.280;2024-01-27T07:38:03;17.92;;;4.30;;
46493;SDS011;53214;49.314;6.280;2024-01-27T07:40:30;18.15;;;4.30;;
46493;SDS011;53214;49.314;6.280;2024-01-27T07:42:56;17.42;;;4.22;;
46493;SDS011;53214;49.314;6.280;2024-01-27T07:45:23;14.90;;;3.58;;
46493;SDS011;53214;49.314;6.280;2024-01-27T07:47:50;19.65;;;3.95;;
46493;SDS011;53214;49.314;6.280;2024-01-27T07:50:17;15.68;;;3.75;;
46493;SDS011;53214;49.314;6.280;2024-01-27T07:52:44;15.38;;;4.10;;
46493;SDS011;53214;49.314;6.280;2024-01-27T07:55:11;19.70;;;4.22;;
46493;SDS011;53214;49.314;6.280;2024-01-27T07:57:37;20.52;;;3.85;;
46493;SDS011;53214;49.314;6.280;2024-01-27T08:00:04;19.23;;;4.55;;
46493;SDS011;53214;49.314;6.280;2024-01-27T08:02:32;13.02;;;3.83;;
46493;SDS011;53214;49.314;6.280;2024-01-27T08:05:00;14.07;;;4.18;;
46493;SDS011;53214;49.314;6.280;2024-01-27T08:07:26;13.82;;;4.30;;
46493;SDS011;53214;49.314;6.280;2024-01-27T08:09:53;16.63;;;4.60;;
46493;SDS011;53214;49.314;6.280;2024-01-27T08:12:20;10.90;;;3.60;;
46493;SDS011;53214;49.314;6.280;2024-01-27T08:14:47;16.92;;;4.55;;
46493;SDS011;53214;49.314;6.280;2024-01-27T08:17:14;12.98;;;3.83;;
46493;SDS011;53214;49.314;6.280;2024-01-27T08:19:41;17.00;;;3.97;;
46493;SDS011;53214;49.314;6.280;2024-01-27T08:22:08;13.27;;;3.80;;
46493;SDS011;53214;49.314;6.280;2024-01-27T08:24:35;17.90;;;4.47;;
46493;SDS011;53214;49.314;6.280;2024-01-27T08:27:02;17.33;;;4.85;;
46493;SDS011;53214;49.314;6.280;2024-01-27T08:29:29;12.35;;;4.05;;
46493;SDS011;53214;49.314;6.280;2024-01-27T08:31:56;12.27;;;3.70;;
46493;SDS011;53214;49.314;6.280;2024-01-27T08:34:23;14.63;;;4.22;;
46493;SDS011;53214;49.314;6.280;2024-01-27T08:36:50;16.25;;;4.05;;
46493;SDS011;53214;49.314;6.280;2024-01-27T08:39:17;13.00;;;3.58;;
46493;SDS011;53214;49.314;6.280;2024-01-27T08:41:44;15.38;;;4.35;;
46493;SDS011;53214;49.314;6.280;2024-01-27T08:44:11;16.90;;;4.38;;
46493;SDS011;53214;49.314;6.280;2024-01-27T08:46:37;12.98;;;3.63;;
46493;SDS011;53214;49.314;6.280;2024-01-27T08:49:04;13.55;;;4.10;;
46493;SDS011;53214;49.314;6.280;2024-01-27T08:51:31;13.07;;;3.92;;
46493;SDS011;53214;49.314;6.280;2024-01-27T08:53:58;15.07;;;4.53;;
46493;SDS011;53214;49.314;6.280;2024-01-27T08:56:25;11.85;;;4.30;;
46493;SDS011;53214;49.314;6.280;2024-01-27T08:58:51;14.50;;;4.32;;
46493;SDS011;53214;49.314;6.280;2024-01-27T09:01:19;14.63;;;3.88;;
46493;SDS011;53214;49.314;6.280;2024-01-27T09:03:46;12.73;;;4.70;;
46493;SDS011;53214;49.314;6.280;2024-01-27T09:06:13;17.00;;;4.43;;
46493;SDS011;53214;49.314;6.280;2024-01-27T09:08:40;12.55;;;3.60;;
46493;SDS011;53214;49.314;6.280;2024-01-27T09:11:07;14.02;;;4.40;;
46493;SDS011;53214;49.314;6.280;2024-01-27T09:13:35;15.77;;;4.70;;
46493;SDS011;53214;49.314;6.280;2024-01-27T09:16:02;13.27;;;4.70;;
46493;SDS011;53214;49.314;6.280;2024-01-27T09:18:29;14.65;;;4.63;;
46493;SDS011;53214;49.314;6.280;2024-01-27T09:20:56;14.82;;;3.78;;
46493;SDS011;53214;49.314;6.280;2024-01-27T09:23:23;12.50;;;4.43;;
46493;SDS011;53214;49.314;6.280;2024-01-27T09:25:50;12.82;;;4.82;;
46493;SDS011;53214;49.314;6.280;2024-01-27T09:28:17;13.30;;;3.65;;
46493;SDS011;53214;49.314;6.280;2024-01-27T09:30:43;16.05;;;3.95;;
46493;SDS011;53214;49.314;6.280;2024-01-27T09:33:11;15.38;;;4.50;;
46493;SDS011;53214;49.314;6.280;2024-01-27T09:35:38;13.18;;;4.43;;
46493;SDS011;53214;49.314;6.280;2024-01-27T09:38:05;13.10;;;4.22;;
46493;SDS011;53214;49.314;6.280;2024-01-27T09:40:35;14.70;;;4.30;;
46493;SDS011;53214;49.314;6.280;2024-01-27T09:43:02;12.90;;;4.03;;
46493;SDS011;53214;49.314;6.280;2024-01-27T09:45:30;11.93;;;3.72;;
46493;SDS011;53214;49.314;6.280;2024-01-27T09:47:57;12.48;;;3.92;;
46493;SDS011;53214;49.314;6.280;2024-01-27T09:50:26;14.80;;;3.70;;
46493;SDS011;53214;49.314;6.280;2024-01-27T09:52:53;15.00;;;4.78;;
46493;SDS011;53214;49.314;6.280;2024-01-27T09:55:20;16.27;;;4.32;;
46493;SDS011;53214;49.314;6.280;2024-01-27T09:57:47;13.45;;;4.15;;
46493;SDS011;53214;49.314;6.280;2024-01-27T10:00:15;15.35;;;3.90;;
46493;SDS011;53214;49.314;6.280;2024-01-27T10:02:43;13.10;;;4.53;;
46493;SDS011;53214;49.314;6.280;2024-01-27T10:05:13;13.80;;;4.35;;
46493;SDS011;53214;49.314;6.280;2024-01-27T10:07:41;11.75;;;3.90;;
46493;SDS011;53214;49.314;6.280;2024-01-27T10:10:08;18.33;;;4.60;;
46493;SDS011;53214;49.314;6.280;2024-01-27T10:12:40;13.15;;;4.57;;
46493;SDS011;53214;49.314;6.280;2024-01-27T10:15:20;16.20;;;4.37;;
46493;SDS011;53214;49.314;6.280;2024-01-27T10:17:48;13.70;;;4.32;;
46493;SDS011;53214;49.314;6.280;2024-01-27T10:20:15;15.77;;;4.03;;
46493;SDS011;53214;49.314;6.280;2024-01-27T10:22:45;13.93;;;3.80;;
46493;SDS011;53214;49.314;6.280;2024-01-27T10:25:12;15.25;;;4.00;;
46493;SDS011;53214;49.314;6.280;2024-01-27T10:27:39;9.02;;;3.63;;
46493;SDS011;53214;49.314;6.280;2024-01-27T10:30:08;10.73;;;3.75;;
46493;SDS011;53214;49.314;6.280;2024-01-27T10:32:53;14.43;;;4.00;;
46493;SDS011;53214;49.314;6.280;2024-01-27T10:35:22;15.57;;;3.67;;
46493;SDS011;53214;49.314;6.280;2024-01-27T10:37:53;11.88;;;3.65;;
46493;SDS011;53214;49.314;6.280;2024-01-27T10:40:25;9.75;;;3.33;;
46493;SDS011;53214;49.314;6.280;2024-01-27T10:43:00;15.35;;;3.42;;
46493;SDS011;53214;49.314;6.280;2024-01-27T10:45:35;14.32;;;4.53;;
46493;SDS011;53214;49.314;6.280;2024-01-27T10:48:04;24.13;;;5.63;;
46493;SDS011;53214;49.314;6.280;2024-01-27T10:50:39;16.75;;;5.68;;
46493;SDS011;53214;49.314;6.280;2024-01-27T10:53:44;13.68;;;3.95;;
46493;SDS011;53214;49.314;6.280;2024-01-27T10:56:06;13.27;;;3.40;;
46493;SDS011;53214;49.314;6.280;2024-01-27T10:58:36;13.93;;;3.75;;
46493;SDS011;53214;49.314;6.280;2024-01-27T11:01:11;13.57;;;3.95;;
46493;SDS011;53214;49.314;6.280;2024-01-27T11:03:39;14.77;;;3.38;;
46493;SDS011;53214;49.314;6.280;2024-01-27T11:06:08;8.65;;;3.72;;
46493;SDS011;53214;49.314;6.280;2024-01-27T11:08:35;13.85;;;3.72;;
46493;SDS011;53214;49.314;6.280;2024-01-27T11:11:09;10.07;;;3.03;;
46493;SDS011;53214;49.314;6.280;2024-01-27T11:13:36;10.27;;;2.85;;
46493;SDS011;53214;49.314;6.280;2024-01-27T11:16:04;15.45;;;4.53;;
46493;SDS011;53214;49.314;6.280;2024-01-27T11:18:31;9.55;;;3.20;;
46493;SDS011;53214;49.314;6.280;2024-01-27T11:20:58;14.02;;;3.17;;
46493;SDS011;53214;49.314;6.280;2024-01-27T11:23:32;11.45;;;4.03;;
46493;SDS011;53214;49.314;6.280;2024-01-27T11:26:02;11.57;;;3.75;;
46493;SDS011;53214;49.314;6.280;2024-01-27T11:28:32;10.05;;;3.28;;
46493;SDS011;53214;49.314;6.280;2024-01-27T11:31:03;13.73;;;3.47;;
46493;SDS011;53214;49.314;6.280;2024-01-27T11:33:30;13.20;;;4.15;;
46493;SDS011;53214;49.314;6.280;2024-01-27T11:36:03;12.40;;;3.70;;
46493;SDS011;53214;49.314;6.280;2024-01-27T11:38:32;8.70;;;3.80;;
46493;SDS011;53214;49.314;6.280;2024-01-27T11:41:01;11.30;;;3.42;;
46493;SDS011;53214;49.314;6.280;2024-01-27T11:43:31;12.75;;;3.45;;
46493;SDS011;53214;49.314;6.280;2024-01-27T11:45:58;10.73;;;3.45;;
46493;SDS011;53214;49.314;6.280;2024-01-27T11:48:26;13.75;;;4.40;;
46493;SDS011;53214;49.314;6.280;2024-01-27T11:51:02;20.70;;;4.78;;
46493;SDS011;53214;49.314;6.280;2024-01-27T11:53:34;15.75;;;4.97;;
46493;SDS011;53214;49.314;6.280;2024-01-27T11:56:01;12.05;;;5.20;;
46493;SDS011;53214;49.314;6.280;2024-01-27T11:58:30;14.05;;;5.60;;
46493;SDS011;53214;49.314;6.280;2024-01-27T12:00:59;16.30;;;6.65;;
46493;SDS011;53214;49.314;6.280;2024-01-27T12:03:27;17.77;;;8.02;;
46493;SDS011;53214;49.314;6.280;2024-01-27T12:05:55;15.50;;;5.82;;
46493;SDS011;53214;49.314;6.280;2024-01-27T12:08:22;13.80;;;5.30;;
46493;SDS011;53214;49.314;6.280;2024-01-27T12:10:49;12.85;;;4.93;;
46493;SDS011;53214;49.314;6.280;2024-01-27T12:13:16;13.35;;;5.43;;
46493;SDS011;53214;49.314;6.280;2024-01-27T12:15:43;12.85;;;4.60;;
46493;SDS011;53214;49.314;6.280;2024-01-27T12:18:10;9.00;;;4.00;;
46493;SDS011;53214;49.314;6.280;2024-01-27T12:20:38;12.20;;;3.75;;
46493;SDS011;53214;49.314;6.280;2024-01-27T12:23:06;10.60;;;4.13;;
46493;SDS011;53214;49.314;6.280;2024-01-27T12:25:33;11.45;;;4.13;;
46493;SDS011;53214;49.314;6.280;2024-01-27T12:28:03;13.57;;;3.72;;
46493;SDS011;53214;49.314;6.280;2024-01-27T12:30:31;11.02;;;3.65;;
46493;SDS011;53214;49.314;6.280;2024-01-27T12:33:00;11.45;;;3.65;;
46493;SDS011;53214;49.314;6.280;2024-01-27T12:35:28;7.82;;;3.60;;
46493;SDS011;53214;49.314;6.280;2024-01-27T12:37:55;12.38;;;3.83;;
46493;SDS011;53214;49.314;6.280;2024-01-27T12:40:25;12.55;;;3.60;;
46493;SDS011;53214;49.314;6.280;2024-01-27T12:42:52;11.10;;;3.75;;
46493;SDS011;53214;49.314;6.280;2024-01-27T12:45:19;11.75;;;3.95;;
46493;SDS011;53214;49.314;6.280;2024-01-27T12:47:46;12.32;;;3.35;;
46493;SDS011;53214;49.314;6.280;2024-01-27T12:50:13;11.13;;;4.03;;
46493;SDS011;53214;49.314;6.280;2024-01-27T12:52:42;8.23;;;3.33;;
46493;SDS011;53214;49.314;6.280;2024-01-27T12:55:09;11.30;;;3.13;;
46493;SDS011;53214;49.314;6.280;2024-01-27T12:57:35;8.27;;;3.53;;
46493;SDS011;53214;49.314;6.280;2024-01-27T13:00:02;9.80;;;3.20;;
46493;SDS011;53214;49.314;6.280;2024-01-27T13:02:36;13.73;;;3.25;;
46493;SDS011;53214;49.314;6.280;2024-01-27T13:05:06;11.77;;;3.80;;
46493;SDS011;53214;49.314;6.280;2024-01-27T13:07:33;12.13;;;3.25;;
46493;SDS011;53214;49.314;6.280;2024-01-27T13:10:01;9.55;;;2.72;;
46493;SDS011;53214;49.314;6.280;2024-01-27T13:12:27;10.15;;;3.15;;
46493;SDS011;53214;49.314;6.280;2024-01-27T13:14:54;9.55;;;2.97;;
46493;SDS011;53214;49.314;6.280;2024-01-27T13:17:21;10.85;;;3.03;;
46493;SDS011;53214;49.314;6.280;2024-01-27T13:19:48;8.15;;;2.60;;
46493;SDS011;53214;49.314;6.280;2024-01-27T13:22:20;12.32;;;3.20;;
46493;SDS011;53214;49.314;6.280;2024-01-27T13:24:50;10.32;;;2.80;;
46493;SDS011;53214;49.314;6.280;2024-01-27T13:27:17;10.80;;;2.90;;
46493;SDS011;53214;49.314;6.280;2024-01-27T13:29:44;9.48;;;2.80;;
46493;SDS011;53214;49.314;6.280;2024-01-27T13:32:11;11.68;;;3.20;;
46493;SDS011;53214;49.314;6.280;2024-01-27T13:34:38;9.07;;;3.00;;
46493;SDS011;53214;49.314;6.280;2024-01-27T13:37:05;12.82;;;3.20;;
46493;SDS011;53214;49.314;6.280;2024-01-27T13:39:32;15.50;;;4.80;;
46493;SDS011;53214;49.314;6.280;2024-01-27T13:41:59;9.13;;;2.30;;
46493;SDS011;53214;49.314;6.280;2024-01-27T13:44:26;7.20;;;2.65;;
46493;SDS011;53214;49.314;6.280;2024-01-27T13:46:53;10.63;;;2.90;;
46493;SDS011;53214;49.314;6.280;2024-01-27T13:49:20;11.13;;;3.28;;
46493;SDS011;53214;49.314;6.280;2024-01-27T13:51:47;8.38;;;2.65;;
46493;SDS011;53214;49.314;6.280;2024-01-27T13:54:14;12.55;;;3.00;;
46493;SDS011;53214;49.314;6.280;2024-01-27T13:56:41;9.23;;;2.70;;
46493;SDS011;53214;49.314;6.280;2024-01-27T13:59:07;11.88;;;2.83;;
46493;SDS011;53214;49.314;6.280;2024-01-27T14:01:34;10.70;;;3.10;;
46493;SDS011;53214;49.314;6.280;2024-01-27T14:04:01;16.20;;;3.40;;
46493;SDS011;53214;49.314;6.280;2024-01-27T14:06:28;9.40;;;2.47;;
46493;SDS011;53214;49.314;6.280;2024-01-27T14:08:55;11.10;;;2.80;;
46493;SDS011;53214;49.314;6.280;2024-01-27T14:11:22;9.65;;;2.60;;
46493;SDS011;53214;49.314;6.280;2024-01-27T14:13:49;9.00;;;2.45;;
46493;SDS011;53214;49.314;6.280;2024-01-27T14:16:16;8.15;;;2.22;;
46493;SDS011;53214;49.314;6.280;2024-01-27T14:18:46;11.60;;;2.72;;
46493;SDS011;53214;49.314;6.280;2024-01-27T14:21:13;10.88;;;3.03;;
46493;SDS011;53214;49.314;6.280;2024-01-27T14:23:40;9.63;;;2.80;;
46493;SDS011;53214;49.314;6.280;2024-01-27T14:26:07;7.80;;;2.45;;
46493;SDS011;53214;49.314;6.280;2024-01-27T14:28:41;9.40;;;2.60;;
46493;SDS011;53214;49.314;6.280;2024-01-27T14:31:08;8.55;;;2.50;;
46493;SDS011;53214;49.314;6.280;2024-01-27T14:33:37;9.82;;;2.70;;